Time;durP1;ratioP1;P1;durP2;ratioP2;P2;SDS_P1;SDS_P2;PMS_P1;PMS_P2;Temp;Humidity;BMP_temperature;BMP_pressure;BME280_temperature;BME280_humidity;BME280_pressure;Samples;Min_cycle;Max_cycle;Signal;HPM_P1;HPM_P2
2023/11/23 00:01:50;;;;;;;26.87;19.33;;;;;;;-0.68;100.00;100298.25;5094831;28;20253;-80
2023/11/23 00:04:16;;;;;;;27.63;19.83;;;;;;;-0.67;100.00;100304.34;5095098;28;20200;-78
2023/11/23 00:06:43;;;;;;;26.20;18.27;;;;;;;-0.63;100.00;100300.47;5095095;28;20652;-80
2023/11/23 00:09:10;;;;;;;28.60;19.93;;;;;;;-0.57;100.00;100306.06;5087146;28;20189;-78
2023/11/23 00:11:37;;;;;;;28.47;19.60;;;;;;;-0.54;100.00;100297.06;5109784;28;20223;-80
2023/11/23 00:14:04;;;;;;;28.93;20.03;;;;;;;-0.52;100.00;100303.88;5080286;28;20195;-82
2023/11/23 00:16:31;;;;;;;26.37;18.67;;;;;;;-0.52;100.00;100306.50;5103076;28;20211;-82
2023/11/23 00:18:58;;;;;;;28.43;19.67;;;;;;;-0.50;100.00;100293.19;5104109;28;20227;-78
2023/11/23 00:21:24;;;;;;;25.93;18.57;;;;;;;-0.54;100.00;100290.00;5105404;28;20227;-82
2023/11/23 00:23:53;;;;;;;25.57;18.17;;;;;;;-0.52;100.00;100288.06;5098169;28;20184;-80
2023/11/23 00:26:20;;;;;;;26.90;19.77;;;;;;;-0.52;100.00;100289.88;5079359;28;20691;-79
2023/11/23 00:28:55;;;;;;;25.80;18.17;;;;;;;-0.53;100.00;100282.94;5100398;28;20246;-79
2023/11/23 00:31:21;;;;;;;27.67;19.50;;;;;;;-0.56;100.00;100294.53;5101673;28;20782;-80
2023/11/23 00:33:48;;;;;;;25.37;19.23;;;;;;;-0.56;100.00;100289.28;5105407;28;20199;-79
2023/11/23 00:36:16;;;;;;;28.03;20.13;;;;;;;-0.60;100.00;100305.47;5111114;28;20196;-79
2023/11/23 00:38:42;;;;;;;26.43;18.97;;;;;;;-0.61;100.00;100309.94;5097632;28;20184;-79
2023/11/23 00:41:09;;;;;;;28.17;20.47;;;;;;;-0.53;100.00;100306.63;5105763;28;20216;-79
2023/11/23 00:43:36;;;;;;;27.83;19.77;;;;;;;-0.53;100.00;100307.47;5092899;28;20702;-79
2023/11/23 00:46:03;;;;;;;26.43;18.73;;;;;;;-0.57;100.00;100303.44;5091700;28;20180;-81
2023/11/23 00:48:30;;;;;;;27.00;20.00;;;;;;;-0.56;100.00;100305.06;5094478;28;20235;-79
2023/11/23 00:50:57;;;;;;;26.47;19.63;;;;;;;-0.61;100.00;100294.13;5086290;28;20663;-79
2023/11/23 00:53:24;;;;;;;25.80;18.97;;;;;;;-0.64;100.00;100297.00;5101150;28;20652;-79
2023/11/23 00:55:50;;;;;;;27.63;20.13;;;;;;;-0.63;100.00;100287.31;5102475;28;20195;-80
2023/11/23 00:58:17;;;;;;;28.60;20.27;;;;;;;-0.63;100.00;100276.78;5106437;28;20219;-80
2023/11/23 01:00:44;;;;;;;29.10;19.57;;;;;;;-0.68;100.00;100276.34;5100721;28;20264;-79
2023/11/23 01:03:11;;;;;;;30.57;21.30;;;;;;;-0.71;100.00;100280.09;5101179;28;20191;-80
2023/11/23 01:05:38;;;;;;;29.93;21.53;;;;;;;-0.73;100.00;100276.75;5064077;28;20200;-81
2023/11/23 01:08:04;;;;;;;29.77;21.20;;;;;;;-0.76;100.00;100279.66;5104740;28;20298;-78
2023/11/23 01:10:31;;;;;;;28.10;19.83;;;;;;;-0.77;100.00;100280.63;5088905;28;20319;-78
2023/11/23 01:12:58;;;;;;;26.93;19.37;;;;;;;-0.79;100.00;100279.09;5094697;28;20195;-80
2023/11/23 01:15:26;;;;;;;30.93;20.93;;;;;;;-0.79;100.00;100272.00;5098142;28;20197;-79
2023/11/23 01:17:52;;;;;;;26.97;19.07;;;;;;;-0.75;100.00;100277.88;5086809;28;20257;-80
2023/11/23 01:20:19;;;;;;;28.73;19.97;;;;;;;-0.79;100.00;100272.00;5101438;28;20220;-79
2023/11/23 01:22:46;;;;;;;28.13;19.33;;;;;;;-0.84;100.00;100276.81;5104101;28;20194;-80
2023/11/23 01:25:13;;;;;;;26.17;19.40;;;;;;;-0.83;100.00;100278.50;5076840;28;20199;-80
2023/11/23 01:27:40;;;;;;;29.60;20.40;;;;;;;-0.85;100.00;100269.09;5106113;28;20238;-80
2023/11/23 01:30:07;;;;;;;28.37;20.07;;;;;;;-0.85;100.00;100271.72;5104791;28;20199;-80
2023/11/23 01:32:34;;;;;;;27.67;19.47;;;;;;;-0.87;100.00;100277.09;5095790;28;20233;-80
2023/11/23 01:35:03;;;;;;;26.27;19.03;;;;;;;-0.90;100.00;100277.38;5101629;28;20195;-80
2023/11/23 01:37:29;;;;;;;28.57;19.67;;;;;;;-0.95;100.00;100274.28;5115443;28;20203;-79
2023/11/23 01:39:57;;;;;;;27.30;19.77;;;;;;;-0.96;100.00;100270.00;5103480;28;20188;-79
2023/11/23 01:42:24;;;;;;;29.07;20.27;;;;;;;-1.03;100.00;100263.59;5096499;28;20253;-79
2023/11/23 01:44:50;;;;;;;29.27;20.27;;;;;;;-1.06;100.00;100269.09;5099364;28;20245;-80
2023/11/23 01:47:17;;;;;;;26.10;18.83;;;;;;;-1.12;100.00;100270.44;5099910;28;20199;-80
2023/11/23 01:49:45;;;;;;;28.03;20.00;;;;;;;-1.14;100.00;100268.94;5105085;28;20235;-80
2023/11/23 01:52:12;;;;;;;28.07;19.50;;;;;;;-1.17;100.00;100264.78;5106209;28;20192;-79
2023/11/23 01:54:39;;;;;;;29.27;20.00;;;;;;;-1.18;100.00;100265.72;5094322;28;20244;-80
2023/11/23 01:57:07;;;;;;;27.80;20.40;;;;;;;-1.19;100.00;100257.97;5093478;28;20708;-79
2023/11/23 01:59:35;;;;;;;30.37;19.87;;;;;;;-1.24;100.00;100242.56;5101659;28;20223;-80
2023/11/23 02:02:03;;;;;;;26.60;19.43;;;;;;;-1.21;100.00;100249.38;5069732;28;20199;-80
2023/11/23 02:04:30;;;;;;;30.23;19.83;;;;;;;-1.22;100.00;100248.56;5105482;28;20208;-84
2023/11/23 02:06:58;;;;;;;26.93;19.50;;;;;;;-1.21;100.00;100241.50;5095074;28;20199;-79
2023/11/23 02:09:25;;;;;;;28.87;19.97;;;;;;;-1.20;100.00;100245.78;5105795;28;20215;-78
2023/11/23 02:11:52;;;;;;;27.70;19.53;;;;;;;-1.19;100.00;100250.91;5096108;28;20722;-79
2023/11/23 02:14:19;;;;;;;27.97;19.10;;;;;;;-1.19;100.00;100245.66;5091461;28;20283;-78
2023/11/23 02:16:46;;;;;;;30.20;20.57;;;;;;;-1.19;100.00;100253.53;5092402;28;20290;-80
2023/11/23 02:19:13;;;;;;;27.20;18.90;;;;;;;-1.19;100.00;100248.28;5113054;28;20203;-79
2023/11/23 02:21:40;;;;;;;30.90;20.30;;;;;;;-1.15;100.00;100239.16;5097324;28;20257;-79
2023/11/23 02:24:11;;;;;;;28.27;18.90;;;;;;;-1.10;100.00;100244.03;5095790;28;20210;-81
2023/11/23 02:26:38;;;;;;;30.40;20.67;;;;;;;-1.09;100.00;100237.81;5102797;28;20183;-79
2023/11/23 02:29:05;;;;;;;29.40;20.47;;;;;;;-1.10;100.00;100231.72;5104787;28;20230;-80
2023/11/23 02:31:33;;;;;;;28.93;19.83;;;;;;;-1.06;100.00;100234.91;5097651;28;20690;-80
2023/11/23 02:34:00;;;;;;;28.40;19.57;;;;;;;-1.08;100.00;100242.97;5099276;28;20298;-80
2023/11/23 02:36:27;;;;;;;29.57;19.97;;;;;;;-1.10;100.00;100242.25;5100427;28;20210;-79
2023/11/23 02:38:53;;;;;;;28.77;20.47;;;;;;;-1.10;100.00;100244.88;5106106;28;20244;-81
2023/11/23 02:41:20;;;;;;;28.50;19.80;;;;;;;-1.15;100.00;100247.06;5096831;28;20679;-80
2023/11/23 02:43:48;;;;;;;27.90;19.50;;;;;;;-1.16;100.00;100237.50;5108550;28;20188;-80
2023/11/23 02:46:15;;;;;;;27.73;19.73;;;;;;;-1.17;100.00;100235.00;5095396;28;20276;-78
2023/11/23 02:48:42;;;;;;;26.10;18.17;;;;;;;-1.21;100.00;100242.31;5108181;28;20796;-80
2023/11/23 02:51:09;;;;;;;28.73;19.90;;;;;;;-1.22;100.00;100235.41;5100614;28;20231;-80
2023/11/23 02:53:43;;;;;;;28.23;19.77;;;;;;;-1.20;100.00;100238.72;5105330;28;20230;-80
2023/11/23 02:56:10;;;;;;;28.20;19.27;;;;;;;-1.19;100.00;100235.13;5104555;28;20191;-79
2023/11/23 02:58:41;;;;;;;26.87;19.00;;;;;;;-1.19;100.00;100224.63;5103465;28;20657;-79
2023/11/23 03:01:08;;;;;;;28.60;19.23;;;;;;;-1.21;100.00;100231.78;5095574;28;20253;-81
2023/11/23 03:03:35;;;;;;;28.17;19.30;;;;;;;-1.18;100.00;100228.91;5069228;28;20222;-80
2023/11/23 03:06:02;;;;;;;29.63;19.90;;;;;;;-1.12;100.00;100225.75;5101565;28;20661;-79
2023/11/23 03:08:29;;;;;;;29.30;19.87;;;;;;;-1.14;100.00;100229.47;5096869;28;20215;-80
2023/11/23 03:10:55;;;;;;;27.47;19.10;;;;;;;-1.15;100.00;100233.06;5103430;28;20198;-78
2023/11/23 03:13:22;;;;;;;28.33;19.77;;;;;;;-1.16;100.00;100232.22;5094214;28;20210;-80
2023/11/23 03:15:52;;;;;;;26.93;18.63;;;;;;;-1.16;100.00;100232.22;5100607;28;20210;-80
2023/11/23 03:18:19;;;;;;;27.77;19.10;;;;;;;-1.17;100.00;100229.75;5101435;28;20218;-80
2023/11/23 03:20:46;;;;;;;27.43;18.77;;;;;;;-1.17;100.00;100241.09;5109779;28;20197;-78
2023/11/23 03:23:13;;;;;;;26.67;19.37;;;;;;;-1.17;100.00;100235.00;5101775;28;20200;-80
2023/11/23 03:25:40;;;;;;;27.27;18.83;;;;;;;-1.18;100.00;100228.91;5097544;28;20193;-80
2023/11/23 03:28:07;;;;;;;27.57;19.10;;;;;;;-1.12;100.00;100224.94;5085122;28;20220;-78
2023/11/23 03:30:35;;;;;;;28.00;19.50;;;;;;;-1.12;100.00;100217.84;5100038;28;20184;-81
2023/11/23 03:33:03;;;;;;;28.90;18.37;;;;;;;-1.10;100.00;100223.84;5093245;28;20196;-80
2023/11/23 03:35:30;;;;;;;29.17;19.90;;;;;;;-1.13;100.00;100210.13;5109458;27;20192;-79
2023/11/23 03:37:58;;;;;;;28.27;19.63;;;;;;;-1.17;100.00;100224.50;5090556;28;20212;-80
2023/11/23 03:40:24;;;;;;;26.37;18.83;;;;;;;-1.22;100.00;100224.88;5093512;28;20192;-80
2023/11/23 03:42:51;;;;;;;26.90;18.97;;;;;;;-1.26;100.00;100228.72;5086410;28;20186;-80
2023/11/23 03:45:18;;;;;;;25.80;18.37;;;;;;;-1.23;100.00;100217.97;5094703;28;20195;-80
2023/11/23 03:47:45;;;;;;;26.53;18.97;;;;;;;-1.25;100.00;100217.25;5076723;28;20249;-79
2023/11/23 03:50:12;;;;;;;28.70;20.10;;;;;;;-1.32;100.00;100218.72;5066962;28;20223;-79
2023/11/23 03:52:39;;;;;;;29.80;19.57;;;;;;;-1.39;100.00;100215.78;5069843;28;20191;-80
2023/11/23 03:55:06;;;;;;;26.40;18.93;;;;;;;-1.43;100.00;100203.03;5092016;28;20328;-81
2023/11/23 03:57:32;;;;;;;29.03;19.10;;;;;;;-1.42;100.00;100215.22;5095507;28;20250;-79
2023/11/23 04:00:00;;;;;;;28.27;20.00;;;;;;;-1.47;100.00;100210.34;5094741;28;20211;-80
2023/11/23 04:02:31;;;;;;;29.67;19.77;;;;;;;-1.48;100.00;100210.47;5085737;28;20622;-81
2023/11/23 04:04:57;;;;;;;28.03;19.57;;;;;;;-1.49;100.00;100203.53;5097515;28;20198;-80
2023/11/23 04:07:24;;;;;;;26.77;19.03;;;;;;;-1.54;100.00;100214.44;5104978;28;20619;-79
2023/11/23 04:09:51;;;;;;;28.30;19.23;;;;;;;-1.60;100.00;100206.25;5085905;28;20216;-81
2023/11/23 04:12:17;;;;;;;27.53;19.27;;;;;;;-1.62;100.00;100209.00;5107847;28;20204;-80
2023/11/23 04:14:44;;;;;;;27.90;19.47;;;;;;;-1.65;100.00;100209.25;5105332;28;20191;-80
2023/11/23 04:17:11;;;;;;;27.10;19.70;;;;;;;-1.70;100.00;100206.19;5087689;28;20672;-78
2023/11/23 04:19:38;;;;;;;28.13;19.80;;;;;;;-1.70;100.00;100205.34;5103028;28;20222;-78
2023/11/23 04:22:06;;;;;;;29.50;19.13;;;;;;;-1.73;100.00;100202.97;5098927;28;20649;-81
2023/11/23 04:24:37;;;;;;;28.77;19.00;;;;;;;-1.79;100.00;100205.16;5106360;28;20652;-80
2023/11/23 04:27:04;;;;;;;29.77;19.43;;;;;;;-1.77;100.00;100211.09;5088088;28;20231;-79
2023/11/23 04:29:31;;;;;;;29.67;19.47;;;;;;;-1.81;100.00;100211.47;5096481;28;20278;-79
2023/11/23 04:31:57;;;;;;;28.73;19.00;;;;;;;-1.81;100.00;100220.19;5102244;28;20195;-79
2023/11/23 04:34:24;;;;;;;28.57;18.37;;;;;;;-1.81;100.00;100220.19;5095256;28;20656;-78
2023/11/23 04:36:51;;;;;;;29.33;19.57;;;;;;;-1.84;100.00;100225.72;5096132;28;20196;-80
2023/11/23 04:39:18;;;;;;;28.93;19.50;;;;;;;-1.87;100.00;100230.38;5103965;28;20191;-80
2023/11/23 04:41:44;;;;;;;29.30;19.43;;;;;;;-1.90;100.00;100233.25;5094568;28;20667;-81
2023/11/23 04:44:11;;;;;;;30.37;20.23;;;;;;;-1.99;100.00;100239.25;5098431;28;20268;-80
2023/11/23 04:46:38;;;;;;;27.70;19.00;;;;;;;-2.02;100.00;100229.84;5080639;28;20660;-78
2023/11/23 04:49:05;;;;;;;28.77;18.80;;;;;;;-1.97;100.00;100213.72;5100535;28;20239;-80
2023/11/23 04:51:31;;;;;;;27.00;18.67;;;;;;;-1.95;100.00;100217.03;5106945;28;20256;-80
2023/11/23 04:53:58;;;;;;;30.47;19.87;;;;;;;-1.95;100.00;100220.50;5076848;28;20195;-79
2023/11/23 04:56:25;;;;;;;27.63;19.27;;;;;;;-1.97;100.00;100214.53;5107816;28;20206;-79
2023/11/23 04:58:51;;;;;;;28.77;18.73;;;;;;;-1.98;100.00;100209.41;5111641;28;20232;-79
2023/11/23 05:01:18;;;;;;;25.53;18.57;;;;;;;-1.91;100.00;100202.69;5092067;28;20208;-79
2023/11/23 05:03:46;;;;;;;29.00;20.23;;;;;;;-1.89;100.00;100200.78;5104990;28;20245;-80
2023/11/23 05:06:15;;;;;;;29.17;19.87;;;;;;;-1.88;100.00;100202.44;5108758;28;20236;-79
2023/11/23 05:08:42;;;;;;;27.73;19.00;;;;;;;-1.88;100.00;100191.94;5098802;28;20216;-81
2023/11/23 05:11:09;;;;;;;29.77;19.13;;;;;;;-1.88;100.00;100197.19;5104126;28;20195;-79
2023/11/23 05:13:36;;;;;;;28.30;19.07;;;;;;;-1.88;100.00;100195.41;5097390;28;20253;-80
2023/11/23 05:16:02;;;;;;;29.93;18.90;;;;;;;-1.87;100.00;100202.28;5098844;28;20192;-80
2023/11/23 05:18:29;;;;;;;27.70;18.63;;;;;;;-1.90;100.00;100199.09;5108897;28;20199;-83
2023/11/23 05:20:56;;;;;;;29.13;19.47;;;;;;;-1.92;100.00;100199.25;5095260;28;20196;-79
2023/11/23 05:23:24;;;;;;;32.47;19.37;;;;;;;-1.90;100.00;100193.84;5084258;28;20204;-80
2023/11/23 05:25:52;;;;;;;28.10;18.87;;;;;;;-1.88;100.00;100186.69;5101044;28;20195;-82
2023/11/23 05:28:19;;;;;;;28.93;19.27;;;;;;;-1.89;100.00;100188.47;5096329;28;20232;-80
2023/11/23 05:30:45;;;;;;;26.87;19.27;;;;;;;-1.85;100.00;100189.06;5098163;28;20604;-81
2023/11/23 05:33:12;;;;;;;27.10;19.33;;;;;;;-1.90;100.00;100202.56;5099438;28;20196;-80
2023/11/23 05:35:39;;;;;;;29.47;18.93;;;;;;;-1.92;100.00;100190.53;5106609;28;20707;-79
2023/11/23 05:38:06;;;;;;;30.10;19.37;;;;;;;-1.87;100.00;100185.75;5086518;28;20192;-80
2023/11/23 05:40:32;;;;;;;29.20;19.00;;;;;;;-1.94;100.00;100192.44;5095447;28;20655;-81
2023/11/23 05:42:59;;;;;;;26.80;17.87;;;;;;;-1.95;100.00;100188.13;5092492;28;20706;-80
2023/11/23 05:45:32;;;;;;;26.43;18.23;;;;;;;-1.98;100.00;100184.00;5098118;28;20295;-80
2023/11/23 05:47:59;;;;;;;31.27;19.07;;;;;;;-1.99;100.00;100179.69;5080557;28;20192;-78
2023/11/23 05:50:26;;;;;;;29.97;19.13;;;;;;;-1.99;100.00;100174.44;5088137;28;20223;-80
2023/11/23 05:52:52;;;;;;;27.43;18.33;;;;;;;-2.00;100.00;100187.69;5096965;28;20208;-79
2023/11/23 05:55:19;;;;;;;26.87;18.27;;;;;;;-2.01;100.00;100180.78;5095460;28;20232;-81
2023/11/23 05:57:46;;;;;;;27.50;18.40;;;;;;;-2.03;100.00;100175.66;5093470;28;20192;-82
2023/11/23 06:00:14;;;;;;;25.73;17.53;;;;;;;-1.99;100.00;100171.81;5100226;28;20264;-78
2023/11/23 06:02:41;;;;;;;26.30;18.00;;;;;;;-1.93;100.00;100173.09;5092639;28;20204;-80
2023/11/23 06:05:08;;;;;;;29.07;18.47;;;;;;;-1.92;100.00;100159.84;5093985;28;20206;-80
2023/11/23 06:07:35;;;;;;;28.17;17.73;;;;;;;-1.83;100.00;100159.09;5077589;28;20200;-80
2023/11/23 06:10:04;;;;;;;27.30;17.70;;;;;;;-1.80;100.00;100157.97;5081254;28;20215;-79
2023/11/23 06:12:31;;;;;;;25.27;17.50;;;;;;;-1.69;100.00;100159.72;5098217;28;20207;-80
2023/11/23 06:14:58;;;;;;;24.23;15.90;;;;;;;-1.62;100.00;100156.44;5105830;28;20188;-80
2023/11/23 06:17:25;;;;;;;25.43;17.53;;;;;;;-1.59;100.00;100148.31;5102806;28;20192;-80
2023/11/23 06:19:52;;;;;;;26.37;17.67;;;;;;;-1.45;100.00;100142.72;5097022;28;20194;-81
2023/11/23 06:22:19;;;;;;;22.27;16.67;;;;;;;-1.45;100.00;100152.41;5098822;28;20200;-80
2023/11/23 06:24:45;;;;;;;27.07;17.43;;;;;;;-1.45;100.00;100147.97;5094908;28;20191;-79
2023/11/23 06:27:12;;;;;;;23.77;16.60;;;;;;;-1.32;100.00;100142.50;5088926;28;20204;-79
2023/11/23 06:29:39;;;;;;;23.30;15.90;;;;;;;-1.35;100.00;100140.94;5098210;28;20207;-80
2023/11/23 06:32:06;;;;;;;23.93;17.13;;;;;;;-1.37;100.00;100136.81;5097411;28;20730;-79
2023/11/23 06:34:34;;;;;;;22.57;16.30;;;;;;;-1.37;100.00;100132.38;5096478;28;20270;-80
2023/11/23 06:37:05;;;;;;;24.23;16.43;;;;;;;-1.34;100.00;100134.72;5100350;28;21615;-79
2023/11/23 06:39:35;;;;;;;23.63;16.40;;;;;;;-1.28;100.00;100143.06;5097709;28;20193;-80
2023/11/23 06:42:03;;;;;;;20.53;14.93;;;;;;;-1.22;100.00;100135.50;5104912;28;20216;-78
2023/11/23 06:44:30;;;;;;;21.03;15.10;;;;;;;-1.18;100.00;100128.16;5108403;28;20196;-81
2023/11/23 06:46:57;;;;;;;20.60;15.17;;;;;;;-1.14;100.00;100133.03;5095318;28;20188;-80
2023/11/23 06:49:24;;;;;;;20.17;14.53;;;;;;;-1.06;100.00;100129.72;5102265;28;20766;-80
2023/11/23 06:51:51;;;;;;;21.10;14.97;;;;;;;-1.00;100.00;100134.47;5100690;28;20621;-79
2023/11/23 06:54:18;;;;;;;20.27;14.57;;;;;;;-0.96;100.00;100127.97;5097974;28;20189;-79
2023/11/23 06:56:45;;;;;;;20.63;14.70;;;;;;;-0.91;100.00;100123.97;5097045;28;20643;-79
2023/11/23 06:59:12;;;;;;;22.00;14.90;;;;;;;-0.85;100.00;100114.72;5115497;28;20241;-79
2023/11/23 07:01:39;;;;;;;21.87;15.07;;;;;;;-0.80;100.00;100101.16;5101740;28;20294;-79
2023/11/23 07:04:07;;;;;;;32.43;20.93;;;;;;;-0.70;100.00;100097.53;5100202;28;20225;-80
2023/11/23 07:06:34;;;;;;;26.97;18.20;;;;;;;-0.63;100.00;100103.94;5087930;28;20691;-81
2023/11/23 07:09:02;;;;;;;28.13;16.73;;;;;;;-0.54;100.00;100105.75;5099409;28;20223;-80
2023/11/23 07:11:30;;;;;;;29.10;16.03;;;;;;;-0.45;100.00;100101.44;5113064;28;20199;-79
2023/11/23 07:13:56;;;;;;;28.53;15.23;;;;;;;-0.47;100.00;100106.84;5102378;28;20196;-79
2023/11/23 07:16:23;;;;;;;31.77;16.50;;;;;;;-0.40;100.00;100104.50;5099861;28;20211;-79
2023/11/23 07:18:50;;;;;;;21.27;14.10;;;;;;;-0.39;100.00;100095.66;5106555;28;20195;-79
2023/11/23 07:21:17;;;;;;;22.27;14.23;;;;;;;-0.35;100.00;100099.66;5099853;28;20214;-79
2023/11/23 07:23:43;;;;;;;18.80;13.10;;;;;;;-0.36;100.00;100112.94;5083903;28;20223;-80
2023/11/23 07:26:11;;;;;;;18.10;12.70;;;;;;;-0.35;100.00;100101.47;5098803;28;20198;-80
2023/11/23 07:28:38;;;;;;;18.97;13.80;;;;;;;-0.32;100.00;100090.63;5095651;28;20196;-80
2023/11/23 07:31:09;;;;;;;18.10;13.30;;;;;;;-0.29;100.00;100103.53;5101211;28;20270;-80
2023/11/23 07:33:36;;;;;;;19.30;14.43;;;;;;;-0.34;100.00;100097.88;5101551;28;20188;-79
2023/11/23 07:36:03;;;;;;;20.70;14.57;;;;;;;-0.41;100.00;100108.09;5087782;28;20665;-80
2023/11/23 07:38:32;;;;;;;23.27;15.57;;;;;;;-0.39;100.00;100115.88;5101669;28;20261;-78
2023/11/23 07:41:01;;;;;;;26.30;16.47;;;;;;;-0.33;100.00;100099.53;5103157;28;20206;-80
2023/11/23 07:43:30;;;;;;;23.57;15.27;;;;;;;-0.28;100.00;100098.13;5080387;28;20195;-80
2023/11/23 07:45:58;;;;;;;19.23;14.00;;;;;;;-0.12;100.00;100105.47;5101606;28;20294;-79
2023/11/23 07:48:26;;;;;;;17.17;13.27;;;;;;;-0.02;100.00;100096.59;5093259;28;20757;-80
2023/11/23 07:50:53;;;;;;;18.70;13.30;;;;;;;0.09;100.00;100110.59;5109336;28;20696;-80
2023/11/23 07:53:20;;;;;;;17.47;13.43;;;;;;;0.11;100.00;100111.25;5110082;28;20679;-79
2023/11/23 07:55:49;;;;;;;18.93;13.23;;;;;;;0.19;100.00;100117.47;5098865;28;20196;-81
2023/11/23 07:58:16;;;;;;;17.03;13.37;;;;;;;0.33;100.00;100113.56;5104719;28;20195;-78
2023/11/23 08:00:43;;;;;;;16.93;12.97;;;;;;;0.41;100.00;100111.91;5096260;28;20213;-81
2023/11/23 08:03:10;;;;;;;16.70;12.40;;;;;;;0.49;100.00;100095.38;5110198;28;20191;-80
2023/11/23 08:05:37;;;;;;;15.47;12.43;;;;;;;0.61;100.00;100107.38;5094852;28;20195;-81
2023/11/23 08:08:04;;;;;;;16.27;12.07;;;;;;;0.70;100.00;100098.59;5099689;28;20192;-82
2023/11/23 08:10:30;;;;;;;18.47;14.37;;;;;;;0.80;100.00;100080.94;5099525;28;20265;-78
2023/11/23 08:12:58;;;;;;;19.77;14.60;;;;;;;0.83;100.00;100088.56;5095417;28;20203;-80
2023/11/23 08:15:25;;;;;;;29.23;15.33;;;;;;;0.86;100.00;100080.34;5094058;28;20266;-78
2023/11/23 08:17:52;;;;;;;32.23;15.83;;;;;;;0.84;100.00;100077.00;5106316;28;20266;-80
2023/11/23 08:20:32;;;;;;;17.50;12.37;;;;;;;0.91;100.00;100073.81;5097326;28;20192;-79
2023/11/23 08:22:59;;;;;;;16.43;11.87;;;;;;;0.94;100.00;100086.69;5101608;28;20199;-79
2023/11/23 08:25:26;;;;;;;16.83;12.33;;;;;;;1.00;100.00;100084.31;5099300;28;20192;-80
2023/11/23 08:27:53;;;;;;;17.20;12.27;;;;;;;1.08;100.00;100094.94;5094975;28;20184;-81
2023/11/23 08:30:21;;;;;;;16.13;13.30;;;;;;;1.19;100.00;100091.28;5097058;28;20231;-80
2023/11/23 08:32:49;;;;;;;101.60;38.20;;;;;;;1.31;100.00;100098.00;5101116;28;20199;-78
2023/11/23 08:35:15;;;;;;;87.37;31.10;;;;;;;1.36;100.00;100079.91;5097687;28;20203;-80
2023/11/23 08:37:42;;;;;;;96.53;32.43;;;;;;;1.44;100.00;100084.44;5097214;28;20201;-79
2023/11/23 08:40:09;;;;;;;62.67;24.77;;;;;;;1.48;100.00;100078.72;5086491;28;20241;-79
2023/11/23 08:42:36;;;;;;;36.57;17.90;;;;;;;1.59;100.00;100077.63;5097889;28;20238;-79
2023/11/23 08:45:03;;;;;;;34.33;17.20;;;;;;;1.66;100.00;100081.34;5105329;28;20236;-82
2023/11/23 08:47:30;;;;;;;58.30;22.73;;;;;;;1.71;100.00;100072.00;5097043;28;20184;-78
2023/11/23 08:49:57;;;;;;;39.87;17.97;;;;;;;1.81;100.00;100071.91;5106738;28;20298;-80
2023/11/23 08:52:24;;;;;;;23.23;15.23;;;;;;;1.95;100.00;100081.09;5104962;28;20200;-82
2023/11/23 08:54:51;;;;;;;51.93;20.10;;;;;;;2.01;100.00;100086.59;5097842;28;20200;-79
2023/11/23 08:57:17;;;;;;;33.03;17.30;;;;;;;2.09;100.00;100085.84;5094846;28;20195;-80
2023/11/23 08:59:44;;;;;;;23.63;14.37;;;;;;;2.16;100.00;100090.34;5084220;28;20223;-81
2023/11/23 09:02:11;;;;;;;17.63;12.73;;;;;;;2.33;100.00;100091.28;5093531;28;20196;-82
2023/11/23 09:04:47;;;;;;;89.10;26.07;;;;;;;2.45;100.00;100086.56;5101490;28;20194;-79
2023/11/23 09:07:15;;;;;;;37.27;17.93;;;;;;;2.54;100.00;100091.75;5107352;28;20192;-79
2023/11/23 09:09:42;;;;;;;22.20;14.30;;;;;;;2.64;100.00;100089.81;5102252;28;20238;-78
2023/11/23 09:12:08;;;;;;;15.17;11.33;;;;;;;2.74;100.00;100078.28;5104115;28;20268;-80
2023/11/23 09:14:35;;;;;;;28.63;13.87;;;;;;;2.89;100.00;100074.06;5094469;28;20241;-79
2023/11/23 09:17:17;;;;;;;19.43;11.67;;;;;;;3.06;100.00;100075.75;5099186;28;20202;-79
2023/11/23 09:19:46;;;;;;;26.87;13.10;;;;;;;3.13;100.00;100060.06;5085038;28;20229;-80
2023/11/23 09:22:13;;;;;;;14.93;10.93;;;;;;;3.26;100.00;100057.78;5098815;28;20198;-79
2023/11/23 09:24:40;;;;;;;28.70;13.97;;;;;;;3.40;100.00;100059.81;5109537;28;20202;-79
2023/11/23 09:27:06;;;;;;;18.40;11.33;;;;;;;3.52;100.00;100061.97;5095809;28;20264;-79
2023/11/23 09:29:33;;;;;;;12.83;10.03;;;;;;;3.65;100.00;100060.63;5093337;28;20310;-82
2023/11/23 09:32:03;;;;;;;14.33;10.43;;;;;;;3.85;100.00;100051.38;5091423;28;20184;-79
2023/11/23 09:34:30;;;;;;;10.57;9.47;;;;;;;4.03;100.00;100041.41;5101690;28;20192;-79
2023/11/23 09:36:57;;;;;;;23.00;13.53;;;;;;;4.17;100.00;100040.72;5101620;28;20192;-80
2023/11/23 09:39:24;;;;;;;17.50;11.67;;;;;;;4.33;100.00;100034.56;5099194;28;20193;-79
2023/11/23 09:41:52;;;;;;;11.23;8.93;;;;;;;4.48;100.00;100022.25;5097002;28;20200;-79
2023/11/23 09:44:20;;;;;;;13.53;9.67;;;;;;;4.63;100.00;100009.09;5102844;28;20194;-81
2023/11/23 09:46:47;;;;;;;19.00;11.63;;;;;;;4.87;100.00;99996.53;5103065;28;20188;-84
2023/11/23 09:49:15;;;;;;;138.63;47.33;;;;;;;5.10;100.00;99996.56;5109048;28;20220;-79
2023/11/23 09:51:44;;;;;;;51.10;22.43;;;;;;;5.35;100.00;99985.78;5086550;28;20355;-79
2023/11/23 09:54:14;;;;;;;45.37;21.80;;;;;;;5.64;100.00;99988.56;5078452;28;20203;-80
2023/11/23 09:56:40;;;;;;;8.90;7.47;;;;;;;5.90;100.00;99972.22;5102504;28;20187;-80
2023/11/23 09:59:07;;;;;;;7.13;6.43;;;;;;;6.19;100.00;99972.25;5102299;28;20201;-81
2023/11/23 10:01:37;;;;;;;7.20;5.87;;;;;;;6.40;100.00;99963.53;5098063;28;20312;-81
2023/11/23 10:04:04;;;;;;;6.10;5.50;;;;;;;6.63;100.00;99962.41;5109828;28;20212;-80
2023/11/23 10:06:31;;;;;;;7.70;5.33;;;;;;;6.84;100.00;99958.16;5108823;28;20211;-80
2023/11/23 10:08:58;;;;;;;5.93;5.43;;;;;;;6.95;100.00;99955.00;5112675;28;20215;-79
2023/11/23 10:11:26;;;;;;;6.00;5.40;;;;;;;7.03;100.00;99950.38;5111720;27;20211;-80
2023/11/23 10:13:53;;;;;;;5.77;5.00;;;;;;;7.06;100.00;99947.31;5102455;28;20203;-80
2023/11/23 10:16:20;;;;;;;6.37;4.87;;;;;;;7.10;100.00;99942.44;5098828;28;20196;-80
2023/11/23 10:18:47;;;;;;;5.27;4.77;;;;;;;7.08;100.00;99942.66;5103583;28;20743;-80
2023/11/23 10:21:14;;;;;;;6.87;4.83;;;;;;;7.12;100.00;99939.59;5097942;28;20194;-80
2023/11/23 10:23:43;;;;;;;5.10;4.60;;;;;;;7.12;100.00;99926.28;5096968;28;20553;-80
2023/11/23 10:26:10;;;;;;;5.13;4.60;;;;;;;7.17;100.00;99916.69;5090290;28;20216;-79
2023/11/23 10:28:38;;;;;;;7.47;5.43;;;;;;;7.23;100.00;99923.91;5096393;28;20223;-80
2023/11/23 10:31:05;;;;;;;5.83;4.90;;;;;;;7.30;100.00;99908.00;5082497;28;20243;-79
2023/11/23 10:33:35;;;;;;;6.77;5.13;;;;;;;7.40;100.00;99897.81;5101266;28;20192;-79
2023/11/23 10:36:04;;;;;;;4.73;4.33;;;;;;;7.46;100.00;99899.72;5097046;28;20659;-81
2023/11/23 10:38:39;;;;;;;4.87;4.40;;;;;;;7.45;100.00;99880.25;5108040;28;20221;-78
2023/11/23 10:41:11;;;;;;;4.60;4.20;;;;;;;7.48;100.00;99889.69;5087266;28;20281;-83
2023/11/23 10:43:38;;;;;;;5.00;4.50;;;;;;;7.53;100.00;99882.75;5108419;28;20723;-79
2023/11/23 10:46:09;;;;;;;4.73;4.33;;;;;;;7.66;100.00;99879.34;5109850;28;20202;-79
2023/11/23 10:48:36;;;;;;;4.77;4.30;;;;;;;7.86;100.00;99876.81;5105802;28;20326;-80
2023/11/23 10:51:07;;;;;;;4.13;3.83;;;;;;;8.14;100.00;99866.09;5105649;28;20215;-80
2023/11/23 10:53:33;;;;;;;5.10;3.80;;;;;;;8.48;100.00;99871.41;5104905;28;20687;-81
2023/11/23 10:56:06;;;;;;;4.60;3.60;;;;;;;8.72;100.00;99852.19;5104309;28;20191;-84
2023/11/23 10:58:37;;;;;;;3.97;3.57;;;;;;;8.94;100.00;99858.19;5087225;28;20206;-80
2023/11/23 11:01:10;;;;;;;5.07;3.80;;;;;;;9.16;100.00;99853.47;5100550;28;20706;-81
2023/11/23 11:03:38;;;;;;;3.80;3.50;;;;;;;9.27;100.00;99845.66;5104982;28;20222;-80
2023/11/23 11:06:10;;;;;;;3.87;3.30;;;;;;;9.47;100.00;99848.31;5099420;28;20466;-80
2023/11/23 11:08:38;;;;;;;4.10;3.60;;;;;;;9.14;100.00;99847.50;5089193;28;20231;-78